createdAt,value
2019-03-20T00:00:28.343Z,2.00
2019-03-20T00:02:57.638Z,2.50
2019-03-20T00:05:26.908Z,2.17
2019-03-20T00:07:56.200Z,1.85
2019-03-20T00:10:25.649Z,2.15
2019-03-20T00:12:54.931Z,2.67
2019-03-20T00:15:24.267Z,2.10
2019-03-20T00:17:53.555Z,2.70
2019-03-20T00:20:23.155Z,2.10
2019-03-20T00:22:52.438Z,2.15
2019-03-20T00:25:21.806Z,2.25
2019-03-20T00:27:51.097Z,2.00
2019-03-20T00:30:20.848Z,2.30
2019-03-20T00:32:50.138Z,2.00
2019-03-20T00:35:19.407Z,1.75
2019-03-20T00:37:48.979Z,1.90
2019-03-20T00:40:19.004Z,1.60
2019-03-20T00:42:48.271Z,2.50
2019-03-20T00:45:22.058Z,2.10
2019-03-20T00:47:51.341Z,2.00
2019-03-20T00:50:20.989Z,1.80
2019-03-20T00:52:50.264Z,2.00
2019-03-20T00:55:20.731Z,2.65
2019-03-20T00:57:50.071Z,2.35
2019-03-20T01:00:21.471Z,2.25
2019-03-20T01:02:51.003Z,1.98
2019-03-20T01:05:21.220Z,2.72
2019-03-20T01:07:50.829Z,2.12
2019-03-20T01:10:21.305Z,1.85
2019-03-20T01:12:51.264Z,2.70
2019-03-20T01:15:20.782Z,2.52
2019-03-20T01:17:50.076Z,1.82
2019-03-20T01:20:20.685Z,1.80
2019-03-20T01:22:50.217Z,2.77
2019-03-20T01:25:19.931Z,2.30
2019-03-20T01:27:49.399Z,2.15
2019-03-20T01:30:33.028Z,3.10
2019-03-20T01:33:04.148Z,1.92
2019-03-20T01:35:33.439Z,2.95
2019-03-20T01:38:02.724Z,2.08
2019-03-20T01:40:32.048Z,2.50
2019-03-20T01:43:01.320Z,2.20
2019-03-20T01:45:30.919Z,2.05
2019-03-20T01:48:00.271Z,2.65
2019-03-20T01:50:29.579Z,2.98
2019-03-20T01:52:58.842Z,1.60
2019-03-20T01:55:28.139Z,2.25
2019-03-20T01:57:57.415Z,2.02
2019-03-20T02:00:26.857Z,1.87
2019-03-20T02:02:56.162Z,2.35
2019-03-20T02:05:35.186Z,2.22
2019-03-20T02:07:56.424Z,2.40
2019-03-20T02:10:25.718Z,2.62
2019-03-20T02:12:54.993Z,1.92
2019-03-20T02:15:24.574Z,1.85
2019-03-20T02:17:53.847Z,1.40
2019-03-20T02:20:23.383Z,1.90
2019-03-20T02:22:52.650Z,2.22
2019-03-20T02:25:21.943Z,2.02
2019-03-20T02:27:51.223Z,2.77
2019-03-20T02:30:20.892Z,2.35
2019-03-20T02:32:50.526Z,1.65
2019-03-20T02:35:19.804Z,2.62
2019-03-20T02:37:49.100Z,2.95
2019-03-20T02:40:18.350Z,2.00
2019-03-20T02:42:49.203Z,3.02
2019-03-20T02:45:18.854Z,1.82
2019-03-20T02:47:48.456Z,1.90
2019-03-20T02:50:17.749Z,1.90
2019-03-20T02:52:47.054Z,1.87
2019-03-20T02:55:16.327Z,3.30
2019-03-20T02:57:45.687Z,1.82
2019-03-20T03:00:18.937Z,2.08
2019-03-20T03:02:48.213Z,2.05
2019-03-20T03:05:18.169Z,1.80
2019-03-20T03:07:47.791Z,1.42
2019-03-20T03:10:18.225Z,2.00
2019-03-20T03:12:47.561Z,1.82
2019-03-20T03:15:17.220Z,2.83
2019-03-20T03:17:46.554Z,2.17
2019-03-20T03:20:16.233Z,4.28
2019-03-20T03:22:45.531Z,2.60
2019-03-20T03:25:15.775Z,2.37
2019-03-20T03:27:45.063Z,2.22
2019-03-20T03:30:16.049Z,1.85
2019-03-20T03:32:45.630Z,1.55
2019-03-20T03:35:17.712Z,1.50
2019-03-20T03:37:46.231Z,2.22
2019-03-20T03:40:19.766Z,2.00
2019-03-20T03:42:49.072Z,2.30
2019-03-20T03:45:18.669Z,2.90
2019-03-20T03:47:47.944Z,2.02
2019-03-20T03:50:17.308Z,1.92
2019-03-20T03:52:46.808Z,2.25
2019-03-20T03:55:16.088Z,2.35
2019-03-20T03:57:45.815Z,2.22
2019-03-20T04:00:19.025Z,2.55
2019-03-20T04:02:48.399Z,3.12
2019-03-20T04:05:17.814Z,1.95
2019-03-20T04:07:47.151Z,2.25
2019-03-20T04:10:17.393Z,1.95
2019-03-20T04:12:46.899Z,2.25
2019-03-20T04:15:16.746Z,1.90
2019-03-20T04:17:46.330Z,2.50
2019-03-20T04:20:17.712Z,2.40
2019-03-20T04:22:47.022Z,3.05
2019-03-20T04:25:16.453Z,2.95
2019-03-20T04:27:45.732Z,2.30
2019-03-20T04:30:18.776Z,3.10
2019-03-20T04:32:48.371Z,3.05
2019-03-20T04:35:17.708Z,2.90
2019-03-20T04:37:47.292Z,3.10
2019-03-20T04:40:18.573Z,3.70
2019-03-20T04:42:47.951Z,2.65
2019-03-20T04:45:17.855Z,3.58
2019-03-20T04:47:47.138Z,3.80
2019-03-20T04:50:16.982Z,3.62
2019-03-20T04:52:46.275Z,4.15
2019-03-20T04:55:15.549Z,4.08
2019-03-20T04:57:46.003Z,3.58
2019-03-20T05:00:17.858Z,4.90
2019-03-20T05:02:47.145Z,4.60
2019-03-20T05:05:16.423Z,4.97
2019-03-20T05:07:45.716Z,5.35
2019-03-20T05:10:19.180Z,4.47
2019-03-20T05:12:48.527Z,4.75
2019-03-20T05:15:17.816Z,4.40
2019-03-20T05:17:47.082Z,4.10
2019-03-20T05:20:17.817Z,4.10
2019-03-20T05:22:47.096Z,4.42
2019-03-20T05:25:16.406Z,4.72
2019-03-20T05:27:45.871Z,4.22
2019-03-20T05:30:15.905Z,4.72
2019-03-20T05:32:45.416Z,3.90
2019-03-20T05:35:14.720Z,4.42
2019-03-20T05:37:44.076Z,6.45
2019-03-20T05:40:15.560Z,5.30
2019-03-20T05:42:44.839Z,4.50
2019-03-20T05:45:16.339Z,4.15
2019-03-20T05:47:45.612Z,4.58
2019-03-20T05:50:17.012Z,4.45
2019-03-20T05:52:46.289Z,4.17
2019-03-20T05:55:15.652Z,5.30
2019-03-20T05:57:44.941Z,4.30
2019-03-20T06:00:19.836Z,5.80
2019-03-20T06:02:49.123Z,5.15
2019-03-20T06:05:18.399Z,4.58
2019-03-20T06:07:47.698Z,4.87
2019-03-20T06:10:17.822Z,4.47
2019-03-20T06:12:47.118Z,5.35
2019-03-20T06:15:16.395Z,5.08
2019-03-20T06:17:47.008Z,4.45
2019-03-20T06:20:16.408Z,4.87
2019-03-20T06:22:45.702Z,4.80
2019-03-20T06:25:15.934Z,5.03
2019-03-20T06:27:45.207Z,4.47
2019-03-20T06:30:16.400Z,4.65
2019-03-20T06:32:45.691Z,5.90
2019-03-20T06:35:15.043Z,5.25
2019-03-20T06:37:44.335Z,5.65
2019-03-20T06:40:17.759Z,5.30
2019-03-20T06:42:47.098Z,4.70
2019-03-20T06:45:18.487Z,5.55
2019-03-20T06:47:47.835Z,6.05
2019-03-20T06:50:19.220Z,5.25
2019-03-20T06:52:48.514Z,4.72
2019-03-20T06:55:17.803Z,5.70
2019-03-20T06:57:47.095Z,4.37
2019-03-20T07:00:54.631Z,5.47
2019-03-20T07:03:32.590Z,4.42
2019-03-20T07:06:23.069Z,3.90
2019-03-20T07:09:10.430Z,5.37
2019-03-20T07:11:39.702Z,5.12
2019-03-20T07:14:09.007Z,4.95
2019-03-20T07:16:38.289Z,4.35
2019-03-20T07:19:07.578Z,5.95
2019-03-20T07:21:36.852Z,5.30
2019-03-20T07:24:06.147Z,6.15
2019-03-20T07:26:35.424Z,4.85
2019-03-20T07:29:04.775Z,4.87
2019-03-20T07:31:34.377Z,5.97
2019-03-20T07:34:03.666Z,5.05
2019-03-20T07:36:32.938Z,5.62
2019-03-20T07:39:02.307Z,6.40
2019-03-20T07:41:31.607Z,5.17
2019-03-20T07:44:00.890Z,5.22
2019-03-20T07:46:30.162Z,5.33
2019-03-20T07:48:59.464Z,4.62
2019-03-20T07:51:28.736Z,5.47
2019-03-20T07:53:58.026Z,5.10
2019-03-20T07:56:27.329Z,5.20
2019-03-20T07:58:56.623Z,4.58
2019-03-20T08:01:25.898Z,5.25
2019-03-20T08:03:55.196Z,5.90
2019-03-20T08:06:24.462Z,4.90
2019-03-20T08:08:53.753Z,6.28
2019-03-20T08:11:23.027Z,5.33
2019-03-20T08:13:52.390Z,5.22
2019-03-20T08:16:21.987Z,5.03
2019-03-20T08:18:51.259Z,6.15
2019-03-20T08:21:20.547Z,6.28
2019-03-20T08:23:49.825Z,6.55
2019-03-20T08:26:19.127Z,4.95
2019-03-20T08:28:48.415Z,5.85
2019-03-20T08:31:17.706Z,6.12
2019-03-20T08:33:46.989Z,5.33
2019-03-20T08:36:16.601Z,6.35
2019-03-20T08:38:45.867Z,5.45
2019-03-20T08:41:15.159Z,5.30
2019-03-20T08:43:45.713Z,5.83
2019-03-20T08:46:15.131Z,6.12
2019-03-20T08:48:44.450Z,6.00
2019-03-20T08:51:13.717Z,5.55
2019-03-20T08:53:43.016Z,6.53
2019-03-20T08:56:12.291Z,6.10
2019-03-20T08:58:41.591Z,6.80
2019-03-20T09:01:10.903Z,5.85
2019-03-20T09:03:40.199Z,6.03
2019-03-20T09:06:09.487Z,5.00
2019-03-20T09:08:39.043Z,6.20
2019-03-20T09:11:08.334Z,5.17
2019-03-20T09:13:37.610Z,5.85
2019-03-20T09:16:07.147Z,5.35
2019-03-20T09:18:36.438Z,5.60
2019-03-20T09:21:05.740Z,6.17
2019-03-20T09:23:35.259Z,5.60
2019-03-20T09:26:04.555Z,6.80
2019-03-20T09:28:33.839Z,5.95
2019-03-20T09:31:03.469Z,6.22
2019-03-20T09:33:32.747Z,5.65
2019-03-20T09:36:02.041Z,4.75
2019-03-20T09:38:31.315Z,6.05
2019-03-20T09:41:00.623Z,6.78
2019-03-20T09:43:29.914Z,4.87
2019-03-20T09:45:59.215Z,5.50
2019-03-20T09:48:28.787Z,5.25
2019-03-20T09:50:58.083Z,4.95
2019-03-20T09:53:27.354Z,6.05
2019-03-20T09:55:56.663Z,6.40
2019-03-20T09:58:25.947Z,7.00
2019-03-20T10:00:55.243Z,6.33
2019-03-20T10:03:24.537Z,5.00
2019-03-20T10:05:53.838Z,6.10
2019-03-20T10:08:23.106Z,4.75
2019-03-20T10:10:52.403Z,5.30
2019-03-20T10:13:21.987Z,5.33
2019-03-20T10:15:51.258Z,4.83
2019-03-20T10:18:20.555Z,4.78
2019-03-20T10:20:49.846Z,4.72
2019-03-20T10:23:19.140Z,5.87
2019-03-20T10:25:48.499Z,5.67
2019-03-20T10:28:17.799Z,5.47
2019-03-20T10:30:47.403Z,6.17
2019-03-20T10:33:16.771Z,5.67
2019-03-20T10:35:50.290Z,5.80
2019-03-20T10:38:17.052Z,5.60
2019-03-20T10:40:46.347Z,4.33
2019-03-20T10:43:15.639Z,4.08
2019-03-20T10:45:44.911Z,4.58
2019-03-20T10:48:14.208Z,4.33
2019-03-20T10:50:43.487Z,5.08
2019-03-20T10:53:12.783Z,5.67
2019-03-20T10:55:42.355Z,5.83
2019-03-20T10:58:11.641Z,4.00
2019-03-20T11:00:41.039Z,3.58
2019-03-20T11:03:10.296Z,4.78
2019-03-20T11:05:39.859Z,5.00
2019-03-20T11:08:09.160Z,3.17
2019-03-20T11:10:38.427Z,3.25
2019-03-20T11:13:07.719Z,2.65
2019-03-20T11:15:37.281Z,3.25
2019-03-20T11:18:06.540Z,2.80
2019-03-20T11:20:35.819Z,3.12
2019-03-20T11:23:05.266Z,3.08
2019-03-20T11:25:34.551Z,2.50
2019-03-20T11:28:03.892Z,2.72
2019-03-20T11:30:34.114Z,1.65
2019-03-20T11:33:03.403Z,3.00
2019-03-20T11:35:33.007Z,2.83
2019-03-20T11:38:02.283Z,2.00
2019-03-20T11:40:35.966Z,1.72
2019-03-20T11:43:05.612Z,2.15
2019-03-20T11:45:34.909Z,2.17
2019-03-20T11:48:04.415Z,2.20
2019-03-20T11:50:36.047Z,4.10
2019-03-20T11:53:07.541Z,4.08
2019-03-20T11:55:37.167Z,4.33
2019-03-20T11:58:07.187Z,3.35
2019-03-20T12:00:36.552Z,3.90
2019-03-20T12:03:05.992Z,5.60
2019-03-20T12:05:35.281Z,3.22
2019-03-20T12:08:04.717Z,3.70
2019-03-20T12:10:34.535Z,4.47
2019-03-20T12:13:04.198Z,4.50
2019-03-20T12:15:33.458Z,4.05
2019-03-20T12:18:03.001Z,4.75
2019-03-20T12:20:32.607Z,4.53
2019-03-20T12:23:01.898Z,4.87
2019-03-20T12:25:35.402Z,4.08
2019-03-20T12:28:05.945Z,4.20
2019-03-20T12:30:38.920Z,4.80
2019-03-20T12:33:08.210Z,4.28
2019-03-20T12:35:42.578Z,3.83
2019-03-20T12:38:14.657Z,3.80
2019-03-20T12:40:42.983Z,4.03
2019-03-20T12:43:12.271Z,4.25
2019-03-20T12:45:41.551Z,4.47
2019-03-20T12:48:18.426Z,4.53
2019-03-20T12:50:47.796Z,3.30
2019-03-20T12:53:32.239Z,3.75
2019-03-20T12:56:01.517Z,4.05
2019-03-20T12:58:30.867Z,4.50
2019-03-20T13:01:00.154Z,3.52
2019-03-20T13:03:30.804Z,4.05
2019-03-20T13:06:00.667Z,3.47
2019-03-20T13:08:30.280Z,4.20
2019-03-20T13:10:59.562Z,3.72
2019-03-20T13:13:28.833Z,4.40
2019-03-20T13:15:58.127Z,4.40
2019-03-20T13:18:27.404Z,3.90
2019-03-20T13:20:56.699Z,3.17
2019-03-20T13:23:32.098Z,4.15
2019-03-20T13:26:01.394Z,4.40
2019-03-20T13:28:30.658Z,3.85
2019-03-20T13:31:03.017Z,4.08
2019-03-20T13:33:32.297Z,3.55
2019-03-20T13:36:01.802Z,3.73
2019-03-20T13:38:31.406Z,4.10
2019-03-20T13:41:00.916Z,3.47
2019-03-20T13:43:30.207Z,3.72
2019-03-20T13:45:59.479Z,3.75
2019-03-20T13:48:28.996Z,3.52
2019-03-20T13:50:58.283Z,3.62
2019-03-20T13:53:27.828Z,3.65
2019-03-20T13:55:57.123Z,3.60
2019-03-20T13:58:26.416Z,3.60
2019-03-20T14:00:55.690Z,3.65
2019-03-20T14:03:25.000Z,3.90
2019-03-20T14:05:54.275Z,2.70
2019-03-20T14:08:23.568Z,3.92
2019-03-20T14:10:52.843Z,4.12
2019-03-20T14:13:22.140Z,3.72
2019-03-20T14:15:51.405Z,3.70
2019-03-20T14:18:20.694Z,3.95
2019-03-20T14:20:49.971Z,3.33
2019-03-20T14:23:19.260Z,3.10
2019-03-20T14:25:48.536Z,3.72
2019-03-20T14:28:18.054Z,3.72
2019-03-20T14:30:47.326Z,4.03
2019-03-20T14:33:16.622Z,3.45
2019-03-20T14:35:46.153Z,3.77
2019-03-20T14:38:15.438Z,4.05
2019-03-20T14:40:44.712Z,3.50
2019-03-20T14:43:14.039Z,4.08
2019-03-20T14:45:43.378Z,3.72
2019-03-20T14:48:12.659Z,3.00
2019-03-20T14:50:41.930Z,3.33
2019-03-20T14:53:11.208Z,3.67
2019-03-20T14:55:40.508Z,3.15
2019-03-20T14:58:09.790Z,2.83
2019-03-20T15:00:39.126Z,4.20
2019-03-20T15:03:08.415Z,3.50
2019-03-20T15:05:37.686Z,3.30
2019-03-20T15:08:06.988Z,3.83
2019-03-20T15:10:45.723Z,3.37
2019-03-20T15:13:07.619Z,4.00
2019-03-20T15:15:54.939Z,3.60
2019-03-20T15:18:24.238Z,4.05
2019-03-20T15:20:53.506Z,3.67
2019-03-20T15:23:22.798Z,2.95
2019-03-20T15:25:52.092Z,3.42
2019-03-20T15:28:21.388Z,2.70
2019-03-20T15:30:50.659Z,3.22
2019-03-20T15:33:19.946Z,3.47
2019-03-20T15:35:49.214Z,3.90
2019-03-20T15:38:18.507Z,3.65
2019-03-20T15:40:55.844Z,3.70
2019-03-20T15:43:18.754Z,3.95
2019-03-20T15:45:48.042Z,3.67
2019-03-20T15:48:17.315Z,3.25
2019-03-20T15:50:46.602Z,3.52
2019-03-20T15:53:15.911Z,3.95
2019-03-20T15:55:45.182Z,2.95
2019-03-20T15:58:14.518Z,3.22
2019-03-20T16:00:43.946Z,3.15
2019-03-20T16:03:19.263Z,2.65
2019-03-20T16:05:48.558Z,3.08
2019-03-20T16:08:17.827Z,2.85
2019-03-20T16:10:47.122Z,2.60
2019-03-20T16:13:16.391Z,2.98
2019-03-20T16:15:45.845Z,3.02
2019-03-20T16:18:15.131Z,2.33
2019-03-20T16:20:44.403Z,2.65
2019-03-20T16:23:13.699Z,2.60
2019-03-20T16:25:42.970Z,2.72
2019-03-20T16:28:12.254Z,3.12
2019-03-20T16:30:41.522Z,3.20
2019-03-20T16:33:10.806Z,2.95
2019-03-20T16:35:40.100Z,2.80
2019-03-20T16:38:09.390Z,2.80
2019-03-20T16:40:38.780Z,3.20
2019-03-20T16:43:08.171Z,2.55
2019-03-20T16:45:38.135Z,2.98
2019-03-20T16:48:07.411Z,3.12
2019-03-20T16:50:36.693Z,3.00
2019-03-20T16:53:06.047Z,2.52
2019-03-20T16:55:35.672Z,2.77
2019-03-20T16:58:04.931Z,2.60
2019-03-20T17:00:34.473Z,2.90
2019-03-20T17:03:04.171Z,2.98
2019-03-20T17:05:33.458Z,3.55
2019-03-20T17:08:02.734Z,3.75
2019-03-20T17:10:42.431Z,3.72
2019-03-20T17:13:11.706Z,5.25
2019-03-20T17:15:42.250Z,11.22
2019-03-20T17:18:11.759Z,9.30
2019-03-20T17:20:41.038Z,7.10
2019-03-20T17:23:10.414Z,6.33
2019-03-20T17:25:39.756Z,4.35
2019-03-20T17:28:09.203Z,4.00
2019-03-20T17:30:40.711Z,3.45
2019-03-20T17:33:09.986Z,3.47
2019-03-20T17:35:39.271Z,2.85
2019-03-20T17:38:08.543Z,2.35
2019-03-20T17:40:37.831Z,2.90
2019-03-20T17:43:07.118Z,2.52
2019-03-20T17:45:36.727Z,3.35
2019-03-20T17:48:06.066Z,3.10
2019-03-20T17:50:35.619Z,2.65
2019-03-20T17:53:05.834Z,3.02
2019-03-20T17:55:35.291Z,3.20
2019-03-20T17:58:05.124Z,3.80
2019-03-20T18:00:54.153Z,3.20
2019-03-20T18:03:23.435Z,4.05
2019-03-20T18:05:52.727Z,3.90
2019-03-20T18:08:22.006Z,7.62
2019-03-20T18:10:51.544Z,5.35
2019-03-20T18:13:20.815Z,3.58
2019-03-20T18:15:50.110Z,3.35
2019-03-20T18:18:19.403Z,3.90
2019-03-20T18:20:48.690Z,7.72
2019-03-20T18:23:17.995Z,4.28
2019-03-20T18:25:47.556Z,4.22
2019-03-20T18:28:16.855Z,3.92
2019-03-20T18:30:46.135Z,3.60
2019-03-20T18:33:15.427Z,3.70
2019-03-20T18:35:44.722Z,3.27
2019-03-20T18:38:14.259Z,3.12
2019-03-20T18:40:43.593Z,3.45
2019-03-20T18:43:13.294Z,2.42
2019-03-20T18:45:42.883Z,3.10
2019-03-20T18:48:12.165Z,3.75
2019-03-20T18:50:41.543Z,3.58
2019-03-20T18:53:11.183Z,4.00
2019-03-20T18:55:40.900Z,3.77
2019-03-20T18:58:10.209Z,4.05
2019-03-20T19:00:39.489Z,3.67
2019-03-20T19:03:12.191Z,3.15
2019-03-20T19:05:56.639Z,3.35
2019-03-20T19:08:26.037Z,3.77
2019-03-20T19:10:55.378Z,3.55
2019-03-20T19:13:24.735Z,3.83
2019-03-20T19:15:54.978Z,3.08
2019-03-20T19:18:24.585Z,4.10
2019-03-20T19:20:53.855Z,3.60
2019-03-20T19:23:23.129Z,4.75
2019-03-20T19:25:52.408Z,5.08
2019-03-20T19:28:21.982Z,3.40
2019-03-20T19:30:51.267Z,3.60
2019-03-20T19:33:20.794Z,3.12
2019-03-20T19:35:50.087Z,3.22
2019-03-20T19:38:19.362Z,3.47
2019-03-20T19:40:48.661Z,4.00
2019-03-20T19:43:17.935Z,3.35
2019-03-20T19:45:47.239Z,5.20
2019-03-20T19:48:16.511Z,3.62
2019-03-20T19:50:45.794Z,3.60
2019-03-20T19:53:15.398Z,3.52
2019-03-20T19:55:44.679Z,4.10
2019-03-20T19:58:14.202Z,3.62
2019-03-20T20:00:43.495Z,4.20
2019-03-20T20:03:12.782Z,3.30
2019-03-20T20:05:42.135Z,4.05
2019-03-20T20:08:11.820Z,4.17
2019-03-20T20:10:41.095Z,3.47
2019-03-20T20:13:10.374Z,4.20
2019-03-20T20:15:39.663Z,3.65
2019-03-20T20:18:09.235Z,4.03
2019-03-20T20:20:40.059Z,3.60
2019-03-20T20:23:09.330Z,3.75
2019-03-20T20:25:38.975Z,4.60
2019-03-20T20:28:11.187Z,6.40
2019-03-20T20:30:39.832Z,7.20
2019-03-20T20:33:09.275Z,14.80
2019-03-20T20:35:38.585Z,15.03
2019-03-20T20:38:08.139Z,10.40
2019-03-20T20:40:37.424Z,12.05
2019-03-20T20:43:07.042Z,10.18
2019-03-20T20:45:36.424Z,7.62
2019-03-20T20:48:05.717Z,5.58
2019-03-20T20:50:35.100Z,4.62
2019-03-20T20:53:04.371Z,5.05
2019-03-20T20:55:33.768Z,4.90
2019-03-20T20:58:03.113Z,4.90
2019-03-20T21:00:32.394Z,5.05
2019-03-20T21:03:01.667Z,4.45
2019-03-20T21:05:30.955Z,4.28
2019-03-20T21:08:00.223Z,4.33
2019-03-20T21:10:29.511Z,4.35
2019-03-20T21:12:58.778Z,7.53
2019-03-20T21:15:38.966Z,13.48
2019-03-20T21:18:14.034Z,4.95
2019-03-20T21:20:43.963Z,4.40
2019-03-20T21:23:38.843Z,6.05
2019-03-20T21:26:22.115Z,9.55
2019-03-20T21:29:11.260Z,9.10
2019-03-20T21:31:44.100Z,8.53
2019-03-20T21:34:49.921Z,8.93
2019-03-20T21:37:31.601Z,8.20
2019-03-20T21:40:00.913Z,7.12
2019-03-20T21:42:52.873Z,6.87
2019-03-20T21:45:30.902Z,5.62
2019-03-20T21:48:00.190Z,6.53
2019-03-20T21:50:49.202Z,5.40
2019-03-20T21:53:30.888Z,6.80
2019-03-20T21:56:21.659Z,5.25
2019-03-20T21:59:26.195Z,5.20
2019-03-20T22:02:30.587Z,4.22
2019-03-20T22:05:00.262Z,4.70
2019-03-20T22:07:29.602Z,4.80
2019-03-20T22:10:21.563Z,4.75
2019-03-20T22:12:53.973Z,4.12
2019-03-20T22:15:32.191Z,4.10
2019-03-20T22:18:28.926Z,3.70
2019-03-20T22:21:01.589Z,4.40
2019-03-20T22:24:07.531Z,4.62
2019-03-20T22:26:51.647Z,4.10
2019-03-20T22:29:24.947Z,4.65
2019-03-20T22:32:12.246Z,5.05
2019-03-20T22:34:44.623Z,4.72
2019-03-20T22:37:15.232Z,4.80
2019-03-20T22:40:16.264Z,4.50
2019-03-20T22:43:00.723Z,3.90
2019-03-20T22:45:58.891Z,4.62
2019-03-20T22:48:48.058Z,4.33
2019-03-20T22:51:34.822Z,3.85
2019-03-20T22:54:21.649Z,4.80
2019-03-20T22:57:14.478Z,4.55
2019-03-20T22:59:43.747Z,4.78
2019-03-20T23:02:18.691Z,4.30
2019-03-20T23:04:51.771Z,5.17
2019-03-20T23:07:21.071Z,5.42
2019-03-20T23:09:50.338Z,4.30
2019-03-20T23:12:19.698Z,4.72
2019-03-20T23:14:49.042Z,4.30
2019-03-20T23:17:18.329Z,4.10
2019-03-20T23:19:48.055Z,4.62
2019-03-20T23:22:17.785Z,3.87
2019-03-20T23:24:47.293Z,4.30
2019-03-20T23:27:20.000Z,4.28
2019-03-20T23:29:49.262Z,4.72
2019-03-20T23:32:18.559Z,4.15
2019-03-20T23:34:47.829Z,4.75
2019-03-20T23:37:17.123Z,4.58
2019-03-20T23:39:46.407Z,4.60
2019-03-20T23:42:15.756Z,4.80
2019-03-20T23:44:45.043Z,4.85
2019-03-20T23:47:14.336Z,4.95
2019-03-20T23:49:43.890Z,4.87
2019-03-20T23:52:13.155Z,4.90
2019-03-20T23:54:44.074Z,4.30
2019-03-20T23:57:13.936Z,5.28
2019-03-20T23:59:43.235Z,4.75
